Nearby METAR Reports


RPLC - Angeles/Pampanga, Philippines
Distance from station: S 166km
Updated: Sun, 19-Jan-2020 7:00pm PST
Mostly cloudy
Mostly cloudy
 Wind from S
Wind: S 7 km/h
Temperature: 27°C
Heat Index: 29°C
Dew Point: 21°C
Humidity: 70%
Clouds: Mostly cloudy
Visibility: 10 km
Cloud details: Few Clouds 610 m
Mostly cloudy 9144 m
2020/01/19 11:00 RPLC 191100Z 18004KT 9999 FEW020 BKN300 27/21 0Q1015 NOSIG RMK A2997
RPLI - Laoag Intl Airport, Philippines
Distance from station: N 171km
Updated: Sun, 19-Jan-2020 7:00pm PST
Partly cloudy
Partly cloudy
 Wind from ENE
Wind: ENE 9 km/h
Temperature: 26°C
Dew Point: 23°C
Humidity: 84%
Barometer: 1015 hPa
Clouds: Partly cloudy
Visibility: 10 km
Cloud details: Few Clouds 549 m
Partly cloudy 8839 m
2020/01/19 11:00 RPLI 191100Z 06005KT 9999 FEW018 SCT290 26/23 Q1015 NOSIG RMK A2997
 
RPLB - Olongapo/Subic, Philippines
Distance from station: S 205km
Updated: Sun, 19-Jan-2020 7:00pm PST
Few Clouds
Few Clouds
 Wind from ESE
Wind: ESE 9 km/h
Temperature: 27°C
Heat Index: 30°C
Dew Point: 23°C
Humidity: 79%
Barometer: 1015 hPa
Clouds: Few Clouds
Visibility: 10 km
Cloud details: Few Clouds 610 m
2020/01/19 11:00 RPLB 191100Z 12005KT 9999 FEW020 27/23 Q1015 NOSIG RMK A2997
RPLL - Ninoy Aquino Intl Airport, Philippines
Distance from station: SSE 247km
Updated: Sun, 19-Jan-2020 7:00pm PST
Few Clouds
Few Clouds
 Wind from SE
Wind: SE 9 km/h
Temperature: 27°C
Heat Index: 29°C
Dew Point: 22°C
Humidity: 74%
Barometer: 1014 hPa
Clouds: Few Clouds
Visibility: 10 km
Cloud details: Few Clouds 762 m
2020/01/19 11:00 RPLL 191100Z 13005KT 090V190 9999 FEW025 27/22 Q1014 NOSIG RMK A2994